Time;durP1;ratioP1;P1;durP2;ratioP2;P2;SDS_P1;SDS_P2;PMS_P1;PMS_P2;Temp;Humidity;BMP_temperature;BMP_pressure;BME280_temperature;BME280_humidity;BME280_pressure;Samples;Min_cycle;Max_cycle;Signal;HPM_P1;HPM_P2
2022/04/27 00:09:12;;;;;;;2.92;1.90;;;;;;;12.56;62.24;98688.19;5595077;23;20020;-90
2022/04/27 00:24:18;;;;;;;2.85;1.83;;;;;;;12.35;62.89;98715.63;5705448;24;20089;-86
2022/04/27 00:26:44;;;;;;;;;;;;;;;12.21;63.71;98727.22;4873680;29;20033;-90
2022/04/27 00:31:53;;;;;;;2.65;1.83;;;;;;;12.07;62.57;98694.69;4829264;29;20094;-89
2022/04/27 00:34:20;;;;;;;;;;;;;;;12.33;62.71;98733.03;4815842;29;20035;-90
2022/04/27 00:36:47;;;;;;;3.95;2.20;;;;;;;12.23;62.38;98737.59;4828573;29;19925;-89
2022/04/27 00:39:19;;;;;;;2.50;1.73;;;;;;;12.05;62.16;98727.66;4831094;29;20061;-88
2022/04/27 00:42:01;;;;;;;2.65;1.70;;;;;;;11.79;63.43;98689.28;4822781;29;20030;-88
2022/04/27 01:17:13;;;;;;;3.15;1.67;;;;;;;12.12;61.39;98722.25;4795161;29;20098;-89
2022/04/27 01:28:06;;;;;;;4.40;1.50;;;;;;;11.85;61.25;98722.94;5747006;23;20083;-88
2022/04/27 01:33:55;;;;;;;3.35;1.50;;;;;;;11.54;62.73;98723.63;4810574;29;20123;-88
2022/04/27 01:36:20;;;;;;;3.42;1.50;;;;;;;11.65;62.65;98760.63;4942522;24;20065;-89
2022/04/27 01:38:46;;;;;;;;;;;;;;;11.63;63.32;98759.78;4836318;29;20052;-89
2022/04/27 01:41:12;;;;;;;2.03;1.40;;;;;;;11.39;63.12;98722.25;4942618;24;19957;-91
2022/04/27 01:46:12;;;;;;;2.63;1.50;;;;;;;11.35;62.99;98724.94;5784551;23;19923;-80
2022/04/27 01:54:16;;;;;;;2.45;1.50;;;;;;;11.51;62.38;98757.47;4837768;29;20149;-91
2022/04/27 01:56:47;;;;;;;2.72;1.40;;;;;;;11.07;62.58;98694.38;4832692;29;20035;-88
2022/04/27 01:59:13;;;;;;;3.75;1.60;;;;;;;11.24;63.50;98721.75;4802650;29;20050;-91
2022/04/27 02:01:40;;;;;;;3.03;1.35;;;;;;;11.09;62.85;98705.59;4817720;29;20035;-88
2022/04/27 02:06:42;;;;;;;2.15;1.30;;;;;;;11.41;63.17;98763.78;5109025;24;20049;-90
2022/04/27 02:09:14;;;;;;;2.40;1.30;;;;;;;11.26;63.07;98720.81;5105571;24;20156;-81
2022/04/27 02:11:46;;;;;;;2.30;1.27;;;;;;;11.45;63.15;98744.63;5107563;24;20045;-88
2022/04/27 02:14:18;;;;;;;;;;;;;;;11.62;63.08;98760.69;5458147;23;20055;31
2022/04/27 02:16:44;;;;;;;1.70;1.30;;;;;;;11.11;62.85;98710.75;4901971;24;19973;-89
2022/04/27 02:19:15;;;;;;;3.53;1.40;;;;;;;11.14;62.69;98716.75;4887653;29;20032;-90
2022/04/27 02:35:28;;;;;;;2.63;1.48;;;;;;;11.49;61.71;98782.63;5881489;24;20044;31
2022/04/27 02:37:54;;;;;;;4.18;1.40;;;;;;;11.88;60.96;98764.47;4794102;29;20036;-88
2022/04/27 02:40:20;;;;;;;2.80;1.40;;;;;;;11.91;59.28;98772.16;5154003;24;20065;-89
2022/04/27 02:42:46;;;;;;;2.50;1.58;;;;;;;11.28;60.11;98726.84;4841502;29;20040;-91
2022/04/27 02:45:12;;;;;;;2.42;1.27;;;;;;;11.33;60.57;98735.38;5158228;23;20253;-84
2022/04/27 02:47:38;;;;;;;;;;;;;;;11.62;59.48;98781.47;4872532;29;20056;-87
2022/04/27 02:58:24;;;;;;;2.45;1.48;;;;;;;10.87;62.66;98727.69;5876733;23;20340;-83
2022/04/27 03:10:56;;;;;;;2.70;1.33;;;;;;;10.68;62.40;98750.56;5836409;24;20872;-81
2022/04/27 03:33:36;;;;;;;1.92;1.00;;;;;;;11.20;60.22;98817.00;5280664;23;20062;-86
2022/04/27 03:36:44;;;;;;;3.75;1.50;;;;;;;11.10;60.23;98790.38;5127745;24;20089;-87
2022/04/27 03:39:15;;;;;;;3.50;1.23;;;;;;;11.04;59.80;98767.16;4864257;29;20060;-90
2022/04/27 03:41:46;;;;;;;1.92;1.38;;;;;;;11.06;59.91;98790.47;4836301;29;20145;-88
2022/04/27 03:44:14;;;;;;;2.10;1.30;;;;;;;11.01;60.56;98784.50;4838070;29;20106;-87
2022/04/27 03:46:40;;;;;;;1.77;1.20;;;;;;;11.12;60.79;98793.78;4810637;29;20042;-87
2022/04/27 03:49:07;;;;;;;3.35;1.50;;;;;;;11.17;59.79;98799.72;4819000;29;20146;-87
2022/04/27 03:51:32;;;;;;;;;;;;;;;11.34;59.55;98822.75;4828238;29;20046;-86
2022/04/27 03:53:59;;;;;;;3.75;1.30;;;;;;;11.22;59.42;98812.63;4835860;29;19935;-89
2022/04/27 03:56:26;;;;;;;3.25;1.30;;;;;;;11.16;59.44;98821.38;4830143;29;20475;-88
2022/04/27 03:58:53;;;;;;;1.48;1.08;;;;;;;11.17;59.47;98819.63;4814490;29;20050;-85
2022/04/27 04:01:18;;;;;;;;;;;;;;;11.37;58.76;98832.25;4790744;29;20038;-84
2022/04/27 04:03:44;;;;;;;5.63;1.70;;;;;;;11.28;58.86;98832.44;4837752;29;19924;-86
2022/04/27 04:06:10;;;;;;;;;;;;;;;11.25;57.80;98835.94;4812667;29;20034;-88
2022/04/27 04:08:41;;;;;;;3.10;1.50;;;;;;;11.06;58.90;98827.66;4843224;29;20010;-87
2022/04/27 04:11:10;;;;;;;5.10;1.50;;;;;;;10.99;59.06;98830.38;4837391;29;20131;-85
2022/04/27 04:13:53;;;;;;;4.25;1.50;;;;;;;10.95;58.84;98829.59;4821514;29;20035;-90
2022/04/27 04:16:27;;;;;;;2.85;1.77;;;;;;;11.04;58.69;98839.81;4848045;29;20052;-87
2022/04/27 04:19:19;;;;;;;3.17;1.08;;;;;;;11.27;59.34;98852.34;4834856;29;20054;-88
2022/04/27 04:22:14;;;;;;;4.13;1.30;;;;;;;11.34;57.81;98847.88;4825700;29;20070;-87
2022/04/27 04:30:32;;;;;;;4.30;1.42;;;;;;;11.36;58.40;98846.97;4850179;29;20062;-87
2022/04/27 04:33:21;;;;;;;3.55;1.20;;;;;;;11.42;58.41;98836.44;4809118;29;20049;-88
2022/04/27 04:35:52;;;;;;;5.03;1.52;;;;;;;11.37;56.59;98827.03;4833073;29;20066;-86
2022/04/27 04:38:19;;;;;;;3.03;1.40;;;;;;;11.35;56.01;98834.00;4815556;29;20136;-88
2022/04/27 04:40:55;;;;;;;6.07;1.50;;;;;;;11.26;55.95;98839.38;4829213;29;20136;-88
2022/04/27 04:43:26;;;;;;;3.63;1.35;;;;;;;11.31;56.59;98851.38;4822005;29;20033;-87
2022/04/27 04:45:53;;;;;;;4.22;1.40;;;;;;;11.36;55.69;98843.50;4834555;29;20090;-87
2022/04/27 04:48:58;;;;;;;4.47;1.40;;;;;;;11.32;56.65;98841.88;4855048;29;20045;-88
2022/04/27 04:51:34;;;;;;;3.22;1.50;;;;;;;11.18;55.79;98826.56;4836272;29;20046;-86
2022/04/27 04:54:19;;;;;;;4.05;2.00;;;;;;;11.08;56.30;98827.59;4831936;29;20061;-87
2022/04/27 04:57:02;;;;;;;4.60;1.55;;;;;;;11.16;56.91;98843.91;4804547;29;20054;-87
2022/04/27 04:59:47;;;;;;;5.75;1.88;;;;;;;11.23;56.89;98850.69;4838247;29;20080;-88
2022/04/27 05:02:23;;;;;;;5.38;1.60;;;;;;;11.11;57.08;98836.19;4835606;29;20069;-87
2022/04/27 05:05:16;;;;;;;4.82;2.03;;;;;;;10.96;57.44;98833.91;4795102;30;20063;-89
2022/04/27 05:08:04;;;;;;;6.22;2.67;;;;;;;11.11;57.48;98867.34;4836898;29;20061;-87
2022/04/27 05:10:45;;;;;;;7.93;2.30;;;;;;;11.29;57.39;98855.75;4849625;29;20046;-86
2022/04/27 05:13:46;;;;;;;7.20;1.90;;;;;;;11.60;56.67;98871.56;4807319;30;20055;-89
2022/04/27 05:16:33;;;;;;;4.53;1.70;;;;;;;11.74;56.59;98871.28;4856778;29;20089;-88
2022/04/27 05:19:00;;;;;;;4.78;1.98;;;;;;;11.67;53.88;98880.94;4849190;29;20075;-89
2022/04/27 05:21:55;;;;;;;6.07;1.75;;;;;;;11.71;53.69;98882.59;4819099;29;20039;-88
2022/04/27 05:24:50;;;;;;;7.70;1.83;;;;;;;11.61;53.83;98882.81;4771298;29;20048;-88
2022/04/27 05:27:28;;;;;;;8.80;1.95;;;;;;;11.37;54.67;98873.78;4822026;29;20026;-87
2022/04/27 05:33:23;;;;;;;6.85;1.60;;;;;;;11.57;54.36;98897.59;4832575;29;20084;-87
2022/04/27 05:36:15;;;;;;;9.68;1.80;;;;;;;11.51;54.58;98889.94;4769371;30;20072;-89
2022/04/27 05:39:16;;;;;;;8.77;2.03;;;;;;;11.09;54.74;98850.97;5159617;24;20054;-88
2022/04/27 05:42:31;;;;;;;5.20;1.90;;;;;;;11.57;55.00;98870.78;4815826;29;20145;-89
2022/04/27 05:47:55;;;;;;;7.43;1.98;;;;;;;11.67;54.66;98903.47;4879920;24;20091;-86
2022/04/27 05:50:54;;;;;;;3.95;1.60;;;;;;;11.19;54.81;98849.88;4839288;29;20078;-88
2022/04/27 05:53:49;;;;;;;3.67;1.73;;;;;;;11.40;55.36;98878.91;4826905;29;20053;-88
2022/04/27 05:56:33;;;;;;;5.95;1.60;;;;;;;11.36;56.17;98898.91;4848771;29;20065;-88
2022/04/27 05:59:18;;;;;;;6.90;1.98;;;;;;;11.46;56.47;98915.16;4843359;29;20074;-87
2022/04/27 06:02:20;;;;;;;5.25;1.63;;;;;;;11.37;55.88;98891.97;4919802;24;20042;-82
2022/04/27 06:04:49;;;;;;;5.32;1.60;;;;;;;11.41;56.21;98911.78;5063335;24;20042;-88
2022/04/27 06:09:57;;;;;;;5.72;1.67;;;;;;;11.03;57.23;98858.84;4809548;29;20047;-87
2022/04/27 06:12:39;;;;;;;3.85;1.65;;;;;;;11.41;56.15;98902.25;4782557;29;20115;-88
2022/04/27 06:15:29;;;;;;;5.63;1.73;;;;;;;11.20;56.11;98867.16;4797242;30;20143;-87
2022/04/27 06:17:59;;;;;;;3.42;1.60;;;;;;;11.04;54.52;98846.72;4770511;30;20046;-88
2022/04/27 06:20:28;;;;;;;9.48;1.85;;;;;;;11.14;54.97;98864.69;4770527;29;20051;-88
2022/04/27 06:22:58;;;;;;;7.28;1.63;;;;;;;11.34;54.22;98879.88;4791158;30;20031;-89
2022/04/27 06:25:26;;;;;;;3.17;1.60;;;;;;;11.36;52.37;98866.84;4783313;29;20118;-90
2022/04/27 06:30:52;;;;;;;6.15;1.92;;;;;;;11.75;51.91;98885.97;4902931;24;20082;-88
2022/04/27 06:33:19;;;;;;;;;;;;;;;12.05;50.93;98892.28;4949493;24;20049;-86
2022/04/27 06:35:48;;;;;;;7.32;2.17;;;;;;;11.94;50.33;98857.88;4858805;29;19935;-88
2022/04/27 06:38:17;;;;;;;4.65;2.30;;;;;;;11.85;50.18;98842.50;4808722;29;20075;-88
2022/04/27 06:40:43;;;;;;;6.13;2.30;;;;;;;11.90;50.36;98844.09;4833292;29;20034;-87
2022/04/27 06:43:10;;;;;;;6.63;2.00;;;;;;;12.08;50.15;98873.16;4822478;29;20055;-87
2022/04/27 06:45:59;;;;;;;5.07;1.98;;;;;;;12.06;49.81;98864.56;4787571;29;20042;-88
2022/04/27 06:48:47;;;;;;;8.35;2.15;;;;;;;12.59;49.77;98902.28;4835805;29;20119;-89
2022/04/27 06:51:31;;;;;;;5.25;2.03;;;;;;;12.74;48.36;98906.28;4829952;29;20075;-88
2022/04/27 06:54:16;;;;;;;8.63;2.45;;;;;;;12.71;47.79;98904.59;4827175;29;20046;-87
2022/04/27 06:56:57;;;;;;;6.00;1.77;;;;;;;12.71;48.67;98920.19;4822256;29;20085;-88
2022/04/27 06:59:26;;;;;;;5.88;1.65;;;;;;;12.78;48.45;98920.03;4834151;29;20114;-89
2022/04/27 07:08:18;;;;;;;4.65;1.90;;;;;;;12.85;47.01;98929.41;4982732;24;20069;-88
2022/04/27 07:10:44;;;;;;;;;;;;;;;13.00;46.48;98962.88;4852755;29;20469;-88
2022/04/27 07:13:11;;;;;;;4.10;1.60;;;;;;;13.14;46.82;98942.53;4835668;29;19942;-85
2022/04/27 07:15:38;;;;;;;4.50;1.50;;;;;;;13.05;47.33;98921.94;4981435;24;20060;-85
2022/04/27 07:18:04;;;;;;;;;;;;;;;13.45;46.50;98960.00;4784252;29;20022;-87
2022/04/27 07:21:34;;;;;;;4.03;1.70;;;;;;;13.35;47.59;98935.94;4837527;29;19915;-87
2022/04/27 07:24:20;;;;;;;6.97;1.50;;;;;;;13.19;47.71;98976.28;5399505;24;22674;-89
2022/04/27 07:26:51;;;;;;;6.82;1.40;;;;;;;13.12;49.45;98967.78;4955121;24;20066;-87
2022/04/27 07:29:38;;;;;;;5.18;2.08;;;;;;;13.25;48.58;98970.97;4845138;29;20056;-88
2022/04/27 07:32:06;;;;;;;4.80;1.30;;;;;;;13.02;49.09;98942.88;4888316;29;20075;-88
2022/04/27 07:34:41;;;;;;;;;;;;;;;13.48;49.43;98983.38;4857809;29;20044;-88
2022/04/27 07:40:02;;;;;;;3.53;1.30;;;;;;;13.38;50.48;98971.50;4974429;24;20298;-89
2022/04/27 07:45:07;;;;;;;3.75;1.55;;;;;;;13.29;50.85;98971.75;5346433;24;19908;-86
2022/04/27 07:47:43;;;;;;;3.80;1.30;;;;;;;13.32;50.94;98956.88;5200113;24;20950;-80
2022/04/27 07:50:11;;;;;;;2.65;1.42;;;;;;;13.38;51.06;98961.09;4787939;29;20034;-88
2022/04/27 07:55:29;;;;;;;3.67;1.40;;;;;;;13.71;49.72;98946.25;5242856;24;20066;-90
2022/04/27 07:57:57;;;;;;;4.20;1.50;;;;;;;13.91;48.55;98969.16;4821023;29;20061;-88
2022/04/27 08:03:12;;;;;;;4.07;1.60;;;;;;;14.15;46.61;98944.09;5225630;24;19944;-88
2022/04/27 08:05:39;;;;;;;4.18;1.65;;;;;;;14.64;46.63;98995.69;4835260;29;20082;-89
2022/04/27 08:08:27;;;;;;;10.25;1.73;;;;;;;14.97;45.54;98998.13;4843817;29;20036;-86
2022/04/27 08:10:57;;;;;;;2.97;1.40;;;;;;;15.23;43.58;98958.91;4861968;29;20059;-88
2022/04/27 08:13:25;;;;;;;2.55;1.20;;;;;;;15.40;42.36;98945.28;4957640;24;20022;-85
2022/04/27 08:15:56;;;;;;;4.25;1.40;;;;;;;15.74;40.48;98955.41;4796092;29;20061;-88
2022/04/27 08:18:25;;;;;;;3.42;1.42;;;;;;;16.29;41.47;98985.66;4989841;24;20061;-88
2022/04/27 08:23:40;;;;;;;5.22;1.30;;;;;;;17.27;39.33;98959.88;4836188;29;20049;-89
2022/04/27 08:26:07;;;;;;;8.10;1.40;;;;;;;17.44;37.85;98961.75;4835669;29;20017;-89
2022/04/27 08:34:49;;;;;;;4.45;1.08;;;;;;;18.19;33.84;98926.94;4812963;29;20030;-89
2022/04/27 08:37:23;;;;;;;2.22;1.13;;;;;;;18.63;35.46;98950.22;4829512;29;20035;-89
2022/04/27 08:39:49;;;;;;;2.22;1.15;;;;;;;18.89;32.94;98970.03;4816666;29;20019;-89
2022/04/27 08:42:17;;;;;;;3.90;2.08;;;;;;;18.79;32.98;98974.88;4803047;29;20076;-89
2022/04/27 08:44:44;;;;;;;2.80;1.20;;;;;;;18.86;32.82;98959.66;4998761;24;20458;-86
2022/04/27 08:50:14;;;;;;;3.95;1.02;;;;;;;19.65;30.78;98990.78;4942321;24;20025;-89
2022/04/27 08:52:43;;;;;;;2.15;1.30;;;;;;;19.70;31.61;98938.75;4853677;29;20048;-89
2022/04/27 08:55:11;;;;;;;2.92;1.40;;;;;;;20.55;30.55;98975.41;4854009;29;20494;-89
2022/04/27 08:57:39;;;;;;;5.47;1.30;;;;;;;20.87;30.27;98980.66;4847499;29;20049;-89
2022/04/27 09:00:07;;;;;;;2.25;1.30;;;;;;;20.94;28.88;98967.03;4853454;29;20066;-89
2022/04/27 09:10:47;;;;;;;3.00;1.10;;;;;;;21.30;26.91;98942.94;5336995;24;20085;-80
2022/04/27 09:36:56;;;;;;;2.38;1.35;;;;;;;19.43;28.83;98960.28;4929582;23;20081;-90
2022/04/27 09:39:49;;;;;;;3.17;1.35;;;;;;;19.60;28.92;98998.91;4843649;29;20037;-89
2022/04/27 09:42:19;;;;;;;2.55;1.58;;;;;;;19.28;29.79;98975.06;5212627;24;20160;-87
2022/04/27 09:45:26;;;;;;;3.15;1.38;;;;;;;19.27;28.35;99006.69;5192390;24;20054;-89
2022/04/27 09:48:03;;;;;;;5.07;1.65;;;;;;;18.41;29.79;98962.69;4868630;29;20026;-90
2022/04/27 09:50:48;;;;;;;5.43;1.40;;;;;;;18.22;29.94;98997.66;4922688;24;20069;-88
2022/04/27 10:00:37;;;;;;;4.68;2.05;;;;;;;16.77;32.76;99019.59;5460639;23;20069;-89
2022/04/27 10:10:34;;;;;;;5.60;1.40;;;;;;;15.93;35.01;99039.28;4794415;30;20045;-88
2022/04/27 10:13:02;;;;;;;4.78;1.33;;;;;;;15.44;35.60;99006.13;4795669;30;20043;-89
2022/04/27 10:22:01;;;;;;;2.22;1.33;;;;;;;15.34;38.79;99057.84;4955693;24;20077;-88
2022/04/27 10:24:37;;;;;;;4.45;1.48;;;;;;;15.88;37.60;99069.97;4968370;24;20033;-89
2022/04/27 10:31:03;;;;;;;3.92;1.63;;;;;;;15.07;38.92;99019.56;4944663;24;20181;-90
2022/04/27 10:34:09;;;;;;;4.40;1.40;;;;;;;14.74;40.23;99053.69;5079371;24;20093;-87
2022/04/27 10:39:23;;;;;;;2.20;1.13;;;;;;;14.29;41.88;99059.31;5654348;23;20066;-89
2022/04/27 10:42:03;;;;;;;4.80;2.10;;;;;;;14.39;42.97;99106.91;4887086;29;20056;-89
2022/04/27 10:44:50;;;;;;;3.97;2.00;;;;;;;14.26;42.93;99103.78;4886605;29;20053;-90
2022/04/27 10:50:40;;;;;;;5.38;1.50;;;;;;;14.67;42.70;99133.09;4829577;29;20046;-88
2022/04/27 10:53:45;;;;;;;4.47;1.33;;;;;;;14.34;43.60;99100.94;4866152;29;20099;-88
2022/04/27 11:14:00;;;;;;;5.20;1.85;;;;;;;14.77;45.75;99144.13;5324455;24;20118;-88
2022/04/27 11:16:26;;;;;;;;;;;;;;;15.23;45.03;99167.94;4851909;29;20083;-87
2022/04/27 11:21:24;;;;;;;5.22;1.80;;;;;;;14.70;46.05;99130.38;4811867;29;20111;-89
2022/04/27 11:27:03;;;;;;;5.35;1.63;;;;;;;14.73;46.30;99174.69;5708514;24;20049;-87
2022/04/27 11:29:34;;;;;;;4.45;1.70;;;;;;;14.60;46.36;99161.13;4842175;29;20050;-89
2022/04/27 11:48:48;;;;;;;10.27;3.00;;;;;;;15.04;44.42;99127.63;6220995;23;20016;-87
2022/04/27 11:51:14;;;;;;;8.77;1.70;;;;;;;15.14;44.01;99134.28;6172963;22;20016;-89
2022/04/27 11:53:46;;;;;;;3.20;1.50;;;;;;;15.42;43.31;99156.91;6158569;23;20028;-88
2022/04/27 11:56:18;;;;;;;7.18;1.77;;;;;;;15.35;43.03;99165.84;6197074;23;20076;-89
2022/04/27 12:07:37;;;;;;;2.47;1.48;;;;;;;15.60;41.47;99126.72;6235246;22;20929;-84
2022/04/27 12:10:16;;;;;;;2.55;1.30;;;;;;;15.80;42.02;99144.38;6231729;22;19996;-90
2022/04/27 12:15:19;;;;;;;3.97;1.75;;;;;;;16.30;40.65;99178.41;6242597;22;20034;-85
2022/04/27 12:24:49;;;;;;;3.33;1.40;;;;;;;16.01;41.83;99178.53;6189010;22;20051;-88
2022/04/27 12:27:23;;;;;;;5.75;1.92;;;;;;;15.61;41.80;99142.34;6175992;23;20036;-88
2022/04/27 12:41:45;;;;;;;2.65;1.30;;;;;;;14.74;43.15;99179.84;6233863;22;20024;-89
2022/04/27 12:49:37;;;;;;;5.40;1.77;;;;;;;14.05;44.55;99159.13;6183932;23;20027;-89
2022/04/27 12:54:40;;;;;;;4.85;1.52;;;;;;;13.69;44.68;99133.94;6221703;23;20036;-86
2022/04/27 13:13:22;;;;;;;2.90;1.50;;;;;;;14.15;43.83;99165.81;6236394;22;20043;-88
2022/04/27 13:16:12;;;;;;;5.18;1.20;;;;;;;15.04;42.34;99208.59;6168945;23;20001;-89
2022/04/27 13:27:04;;;;;;;3.83;1.40;;;;;;;14.37;41.17;99177.38;6208335;23;20088;31
2022/04/27 13:33:12;;;;;;;2.15;1.17;;;;;;;14.04;40.25;99155.66;6178577;22;20054;31
2022/04/27 13:35:42;;;;;;;7.25;1.70;;;;;;;14.47;40.69;99212.75;6157370;23;20029;-89
2022/04/27 13:38:19;;;;;;;3.05;1.60;;;;;;;14.37;41.32;99166.94;6152432;23;20008;-88
2022/04/27 13:40:50;;;;;;;4.28;1.60;;;;;;;14.57;40.58;99158.63;6151269;23;19998;-89
2022/04/27 13:43:17;;;;;;;3.80;1.30;;;;;;;14.98;40.71;99199.19;6123326;23;20043;-89
2022/04/27 13:45:44;;;;;;;4.22;1.52;;;;;;;15.22;39.89;99205.44;6215226;23;20020;-89
2022/04/27 13:48:12;;;;;;;5.95;1.40;;;;;;;15.63;38.62;99184.16;6167381;23;20024;-90
2022/04/27 13:51:03;;;;;;;4.95;1.42;;;;;;;16.11;38.05;99200.00;6161666;23;20032;-89
2022/04/27 13:53:30;;;;;;;4.60;1.90;;;;;;;16.01;37.79;99164.59;6132837;23;20013;-89
2022/04/27 13:55:57;;;;;;;2.53;1.40;;;;;;;16.41;37.81;99205.94;6133631;23;20084;-89
2022/04/27 13:58:30;;;;;;;4.65;1.48;;;;;;;17.09;36.37;99206.13;6133874;23;20021;-89
2022/04/27 14:00:59;;;;;;;3.55;1.42;;;;;;;17.59;35.23;99169.19;6182410;23;20029;-89
2022/04/27 14:05:56;;;;;;;4.43;1.90;;;;;;;17.45;34.29;99211.72;6213148;23;20064;-90
2022/04/27 14:08:22;;;;;;;3.42;1.38;;;;;;;16.88;35.32;99197.31;6188079;23;20086;-90
2022/04/27 14:14:15;;;;;;;6.97;2.40;;;;;;;16.80;36.10;99228.16;6209082;22;20004;-89
2022/04/27 14:19:41;;;;;;;5.60;1.60;;;;;;;15.24;37.98;99203.63;6195962;23;20043;-89
2022/04/27 14:22:26;;;;;;;2.25;1.20;;;;;;;14.70;38.84;99180.84;6155014;23;20064;-88
2022/04/27 14:28:11;;;;;;;5.70;1.35;;;;;;;14.88;41.63;99249.09;6199027;23;20048;-89
2022/04/27 14:36:48;;;;;;;2.47;1.15;;;;;;;14.34;43.22;99257.50;6208284;23;20039;-90
2022/04/27 14:39:18;;;;;;;3.05;1.20;;;;;;;14.22;43.72;99284.78;6218284;23;20010;-90
2022/04/27 14:42:14;;;;;;;4.80;1.70;;;;;;;13.88;45.50;99326.44;6163417;23;20008;-90
2022/04/27 14:44:41;;;;;;;3.17;1.38;;;;;;;13.52;47.42;99300.31;6169511;23;20001;-90
2022/04/27 14:52:38;;;;;;;2.72;1.48;;;;;;;12.88;50.23;99267.75;6189779;23;20225;-89
2022/04/27 15:06:24;;;;;;;2.25;1.35;;;;;;;13.65;48.20;99306.09;6188202;23;20126;31
2022/04/27 15:16:15;;;;;;;3.05;1.60;;;;;;;13.69;44.12;99305.13;6188147;23;20145;31
2022/04/27 15:25:49;;;;;;;3.40;1.92;;;;;;;13.35;43.60;99252.91;6176303;23;21407;-84
2022/04/27 15:51:00;;;;;;;2.85;1.40;;;;;;;14.03;43.83;99333.06;6183571;23;20015;31
2022/04/27 16:02:50;;;;;;;6.22;1.60;;;;;;;12.80;44.77;99285.25;6169534;23;20823;-85
2022/04/27 16:06:11;;;;;;;6.40;1.55;;;;;;;13.09;44.87;99342.81;6210228;23;20039;-90
2022/04/27 16:11:58;;;;;;;4.90;2.03;;;;;;;13.28;44.35;99360.72;6213594;23;20031;-89
2022/04/27 16:14:26;;;;;;;2.55;1.80;;;;;;;12.80;44.60;99306.09;6161639;23;20029;-88
2022/04/27 16:19:36;;;;;;;6.68;2.20;;;;;;;12.13;46.31;99308.97;6235512;22;20013;-89
2022/04/27 16:40:10;;;;;;;4.38;2.63;;;;;;;10.84;54.07;99358.25;6183568;23;20030;-87
2022/04/27 16:42:38;;;;;;;5.45;1.80;;;;;;;10.94;54.59;99354.69;6163626;23;20012;-88
2022/04/27 16:51:49;;;;;;;6.13;2.03;;;;;;;10.87;54.37;99340.91;6182693;23;20080;-88
2022/04/27 17:33:31;;;;;;;5.28;1.92;;;;;;;12.24;45.79;99457.03;6270851;22;20020;-89
2022/04/27 17:46:57;;;;;;;3.25;1.70;;;;;;;12.24;44.37;99497.81;6231040;22;20230;31
2022/04/27 17:49:29;;;;;;;5.55;1.65;;;;;;;11.95;44.34;99463.47;6188673;23;20031;-91
2022/04/27 17:52:13;;;;;;;2.85;1.45;;;;;;;11.88;41.06;99502.59;6164039;23;20021;-89
2022/04/27 17:54:41;;;;;;;4.63;1.50;;;;;;;11.55;41.29;99483.88;6186976;23;20001;-89
2022/04/27 17:57:08;;;;;;;5.43;1.50;;;;;;;11.37;42.45;99471.94;6160875;23;20020;-86
2022/04/27 17:59:34;;;;;;;4.30;1.40;;;;;;;11.28;41.05;99487.59;6161640;23;20097;-86
2022/04/27 18:02:03;;;;;;;6.07;1.35;;;;;;;11.48;42.04;99500.38;6138336;23;20044;-92
2022/04/27 18:07:44;;;;;;;3.65;1.50;;;;;;;11.38;40.04;99458.06;6266034;22;20034;-91
2022/04/27 18:10:11;;;;;;;4.85;1.77;;;;;;;11.56;40.08;99523.69;6220312;23;20079;-88
2022/04/27 18:12:39;;;;;;;3.33;1.80;;;;;;;11.59;41.52;99490.75;6220743;23;20047;-87
2022/04/27 18:15:11;;;;;;;4.47;1.40;;;;;;;11.60;38.60;99502.84;6221466;23;20024;-89
2022/04/27 18:17:37;;;;;;;5.53;1.42;;;;;;;11.71;38.89;99534.78;6196968;23;20042;-87
2022/04/27 18:20:03;;;;;;;;;;;;;;;11.61;38.37;99547.88;6247469;23;20008;-90
2022/04/27 18:22:40;;;;;;;5.93;1.45;;;;;;;11.33;39.04;99526.50;6245594;23;19911;-87
2022/04/27 18:28:41;;;;;;;5.93;1.65;;;;;;;11.40;40.95;99542.00;6241236;22;20023;-89
2022/04/27 18:31:24;;;;;;;3.78;1.08;;;;;;;11.64;40.09;99563.44;6206976;22;20084;-88
2022/04/27 18:34:13;;;;;;;2.85;1.23;;;;;;;11.01;40.52;99499.09;6183438;23;20021;-89
2022/04/27 18:36:40;;;;;;;3.45;1.60;;;;;;;11.06;41.18;99538.84;6157115;23;20013;-88
2022/04/27 18:39:09;;;;;;;3.00;1.42;;;;;;;11.09;42.30;99537.97;6133113;23;20014;-88
2022/04/27 18:41:39;;;;;;;;;;;;;;;11.59;42.00;99576.50;6131890;23;20044;-87
2022/04/27 18:52:04;;;;;;;3.55;1.30;;;;;;;11.58;41.96;99581.69;6303107;22;20079;-89
2022/04/27 19:00:12;;;;;;;4.93;1.75;;;;;;;11.61;40.77;99590.31;6221018;22;20036;-91
2022/04/27 19:02:42;;;;;;;7.00;1.52;;;;;;;11.33;42.40;99584.50;6217036;23;20016;-89
2022/04/27 19:05:09;;;;;;;8.52;1.90;;;;;;;10.99;41.07;99544.94;6141179;23;20070;-90
2022/04/27 19:07:37;;;;;;;3.42;1.38;;;;;;;11.24;42.02;99596.72;6216680;23;20463;-88
2022/04/27 19:10:06;;;;;;;4.57;1.38;;;;;;;11.13;41.73;99599.38;6190350;23;20027;-89
2022/04/27 19:12:36;;;;;;;3.78;1.20;;;;;;;11.13;41.06;99561.31;6189503;23;20056;-88
2022/04/27 19:15:08;;;;;;;4.32;1.88;;;;;;;11.20;40.58;99570.75;6213303;23;20014;-86
2022/04/27 19:17:34;;;;;;;4.63;1.52;;;;;;;11.12;41.06;99567.34;6163963;23;20016;-87
2022/04/27 19:20:00;;;;;;;;;;;;;;;11.48;40.54;99613.81;6186518;23;20008;-87
2022/04/27 19:22:26;;;;;;;6.72;1.73;;;;;;;11.35;42.65;99592.28;6187970;23;19911;-88
2022/04/27 19:24:52;;;;;;;;;;;;;;;11.37;40.81;99624.31;6140939;23;20005;-86
2022/04/27 19:27:19;;;;;;;1.95;1.13;;;;;;;11.32;41.37;99626.09;6188885;23;19911;-88
2022/04/27 19:29:48;;;;;;;2.45;1.00;;;;;;;11.18;41.33;99616.66;6164944;23;20057;-88
2022/04/27 19:32:14;;;;;;;5.80;1.20;;;;;;;10.90;41.58;99615.97;6190443;23;20392;-87
2022/04/27 19:34:40;;;;;;;;;;;;;;;11.09;41.45;99637.50;6165184;23;20011;-86
2022/04/27 19:37:08;;;;;;;6.57;1.70;;;;;;;10.51;43.76;99640.38;6191607;23;19943;-88
2022/04/27 19:39:34;;;;;;;5.35;1.10;;;;;;;10.10;43.70;99641.34;6146456;23;20032;-88
2022/04/27 19:42:00;;;;;;;6.00;1.30;;;;;;;9.70;43.48;99601.69;6141375;23;20012;-88
2022/04/27 19:47:19;;;;;;;4.55;1.88;;;;;;;10.03;44.51;99646.53;6198052;22;20130;-88
2022/04/27 19:49:47;;;;;;;5.35;3.63;;;;;;;9.66;44.81;99608.59;6192844;23;20075;-88
2022/04/27 19:52:15;;;;;;;3.78;1.80;;;;;;;9.69;44.08;99618.13;6164718;23;20024;-87
2022/04/27 19:54:41;;;;;;;;;;;;;;;10.16;43.63;99656.88;6181197;23;20471;-83
2022/04/27 19:57:07;;;;;;;7.03;1.77;;;;;;;9.83;44.76;99641.41;6201198;23;19915;-86
2022/04/27 19:59:32;;;;;;;;;;;;;;;10.04;44.32;99658.66;6155641;23;20391;-82
2022/04/27 20:01:58;;;;;;;3.78;1.30;;;;;;;9.74;44.07;99641.41;6150218;23;19952;-83
